createdAt,value
2018-10-02T00:01:42.137Z,72.95
2018-10-02T00:04:11.744Z,73.19
2018-10-02T00:06:41.231Z,72.97
2018-10-02T00:09:12.277Z,73.33
2018-10-02T00:11:47.280Z,73.24
2018-10-02T00:14:24.804Z,73.44
2018-10-02T00:16:54.353Z,73.25
2018-10-02T00:19:24.158Z,73.19
2018-10-02T00:21:53.957Z,73.22
2018-10-02T00:24:23.457Z,74.24
2018-10-02T00:26:52.947Z,73.96
2018-10-02T00:29:22.459Z,74.15
2018-10-02T00:31:52.014Z,74.00
2018-10-02T00:34:21.659Z,73.74
2018-10-02T00:36:51.144Z,73.85
2018-10-02T00:39:20.625Z,73.74
2018-10-02T00:41:50.460Z,73.89
2018-10-02T00:44:19.945Z,73.90
2018-10-02T00:46:50.013Z,74.18
2018-10-02T00:49:19.936Z,73.72
2018-10-02T00:51:50.025Z,73.83
2018-10-02T00:54:19.524Z,73.97
2018-10-02T00:56:49.920Z,73.64
2018-10-02T00:59:19.675Z,73.64
2018-10-02T01:01:49.177Z,73.77
2018-10-02T01:04:18.749Z,73.51
2018-10-02T01:06:48.330Z,73.38
2018-10-02T01:09:17.805Z,73.53
2018-10-02T01:11:47.330Z,73.55
2018-10-02T01:14:16.918Z,73.49
2018-10-02T01:16:46.420Z,73.52
2018-10-02T01:19:15.935Z,73.84
2018-10-02T01:21:45.413Z,72.82
2018-10-02T01:24:15.237Z,73.95
2018-10-02T01:26:44.817Z,73.59
2018-10-02T01:29:15.241Z,73.40
2018-10-02T01:31:44.790Z,73.97
2018-10-02T01:34:14.313Z,74.39
2018-10-02T01:36:43.810Z,73.92
2018-10-02T01:39:13.321Z,74.02
2018-10-02T01:41:42.777Z,74.73
2018-10-02T01:44:12.276Z,74.42
2018-10-02T01:46:41.772Z,74.34
2018-10-02T01:49:12.182Z,74.46
2018-10-02T01:51:41.686Z,74.39
2018-10-02T01:54:11.322Z,74.54
2018-10-02T01:56:40.825Z,74.57
2018-10-02T01:59:10.711Z,74.23
2018-10-02T02:01:40.531Z,73.97
2018-10-02T02:04:09.998Z,73.84
2018-10-02T02:06:39.708Z,73.88
2018-10-02T02:09:09.212Z,74.37
2018-10-02T02:11:38.775Z,73.49
2018-10-02T02:14:08.619Z,73.73
2018-10-02T02:16:38.084Z,73.97
2018-10-02T02:19:08.676Z,73.99
2018-10-02T02:21:38.346Z,73.87
2018-10-02T02:24:07.887Z,73.82
2018-10-02T02:26:37.498Z,74.12
2018-10-02T02:29:06.998Z,73.94
2018-10-02T02:31:36.474Z,74.56
2018-10-02T02:34:05.947Z,74.10
2018-10-02T02:36:35.714Z,74.32
2018-10-02T02:39:06.561Z,74.59
2018-10-02T02:41:36.052Z,74.46
2018-10-02T02:44:05.542Z,75.27
2018-10-02T02:46:35.068Z,75.61
2018-10-02T02:49:09.697Z,74.99
2018-10-02T02:51:39.153Z,75.15
2018-10-02T02:54:08.915Z,75.38
2018-10-02T02:56:38.625Z,75.47
2018-10-02T02:59:08.447Z,75.74
2018-10-02T03:01:37.953Z,75.14
2018-10-02T03:04:07.451Z,75.25
2018-10-02T03:06:36.934Z,74.82
2018-10-02T03:09:10.221Z,75.77
2018-10-02T03:11:39.746Z,75.51
2018-10-02T03:14:09.479Z,75.25
2018-10-02T03:16:38.944Z,75.64
2018-10-02T03:19:08.715Z,75.40
2018-10-02T03:21:38.195Z,75.10
2018-10-02T03:24:07.933Z,75.57
2018-10-02T03:26:37.455Z,75.85
2018-10-02T03:29:07.349Z,75.52
2018-10-02T03:31:37.048Z,75.68
2018-10-02T03:34:07.368Z,75.86
2018-10-02T03:36:36.853Z,75.40
2018-10-02T03:39:09.044Z,75.97
2018-10-02T03:41:38.697Z,75.35
2018-10-02T03:44:08.221Z,75.75
2018-10-02T03:46:37.708Z,75.51
2018-10-02T03:49:08.029Z,75.25
2018-10-02T03:51:37.588Z,75.54
2018-10-02T03:54:07.520Z,75.71
2018-10-02T03:56:37.013Z,75.69
2018-10-02T03:59:06.557Z,75.17
2018-10-02T04:01:36.129Z,75.60
2018-10-02T04:04:05.624Z,75.21
2018-10-02T04:06:35.335Z,74.95
2018-10-02T04:09:08.277Z,75.21
2018-10-02T04:11:38.237Z,75.59
2018-10-02T04:14:08.152Z,75.37
2018-10-02T04:16:37.889Z,75.01
2018-10-02T04:19:07.779Z,75.01
2018-10-02T04:21:38.211Z,74.60
2018-10-02T04:24:08.641Z,74.66
2018-10-02T04:26:38.657Z,74.88
2018-10-02T04:29:08.476Z,74.67
2018-10-02T04:31:38.680Z,75.22
2018-10-02T04:34:08.379Z,74.90
2018-10-02T04:36:38.035Z,75.05
2018-10-02T04:39:09.550Z,74.38
2018-10-02T04:41:39.162Z,74.62
2018-10-02T04:44:08.662Z,74.50
2018-10-02T04:46:38.264Z,74.75
2018-10-02T04:49:07.956Z,74.54
2018-10-02T04:51:37.449Z,73.75
2018-10-02T04:54:06.938Z,73.49
2018-10-02T04:56:36.501Z,73.51
2018-10-02T04:59:06.008Z,73.39
2018-10-02T05:01:35.541Z,73.11
2018-10-02T05:04:07.027Z,73.12
2018-10-02T05:06:36.509Z,73.10
2018-10-02T05:09:09.391Z,72.69
2018-10-02T05:11:38.999Z,72.06
2018-10-02T05:14:08.861Z,72.26
2018-10-02T05:16:38.557Z,72.01
2018-10-02T05:19:08.082Z,72.18
2018-10-02T05:21:37.575Z,71.18
2018-10-02T05:24:07.453Z,70.97
2018-10-02T05:26:37.131Z,71.53
2018-10-02T05:29:07.753Z,71.09
2018-10-02T05:31:37.245Z,70.57
2018-10-02T05:34:07.269Z,70.52
2018-10-02T05:36:36.989Z,70.50
2018-10-02T05:39:09.140Z,70.32
2018-10-02T05:41:38.729Z,69.95
2018-10-02T05:44:09.347Z,69.85
2018-10-02T05:46:40.013Z,69.95
2018-10-02T05:49:09.973Z,70.68
2018-10-02T05:51:39.631Z,70.74
2018-10-02T05:54:09.908Z,72.12
2018-10-02T05:56:39.808Z,72.58
2018-10-02T05:59:09.305Z,73.02
2018-10-02T06:01:39.169Z,72.98
2018-10-02T06:04:08.665Z,72.90
2018-10-02T06:06:38.492Z,73.56
2018-10-02T06:09:11.717Z,73.97
2018-10-02T06:11:41.471Z,73.79
2018-10-02T06:14:11.559Z,73.92
2018-10-02T06:16:41.557Z,74.30
2018-10-02T06:19:11.139Z,74.71
2018-10-02T06:21:40.729Z,74.76
2018-10-02T06:24:10.263Z,75.09
2018-10-02T06:26:39.965Z,75.00
2018-10-02T06:29:10.050Z,75.34
2018-10-02T06:31:39.551Z,75.46
2018-10-02T06:34:09.064Z,75.03
2018-10-02T06:36:38.644Z,74.75
2018-10-02T06:39:09.123Z,75.31
2018-10-02T06:41:38.658Z,75.48
2018-10-02T06:44:08.534Z,75.05
2018-10-02T06:46:38.037Z,75.66
2018-10-02T06:49:07.591Z,75.37
2018-10-02T06:51:37.168Z,74.72
2018-10-02T06:54:06.973Z,74.95
2018-10-02T06:56:40.398Z,75.07
2018-10-02T06:59:09.997Z,75.04
2018-10-02T07:01:39.479Z,74.68
2018-10-02T07:04:09.213Z,74.89
2018-10-02T07:06:38.739Z,74.30
2018-10-02T07:09:10.403Z,74.58
2018-10-02T07:11:40.881Z,74.25
2018-10-02T07:14:11.220Z,74.43
2018-10-02T07:16:40.742Z,74.33
2018-10-02T07:19:10.612Z,74.33
2018-10-02T07:21:40.117Z,74.28
2018-10-02T07:24:09.621Z,73.55
2018-10-02T07:26:39.372Z,73.88
2018-10-02T07:29:09.031Z,73.54
2018-10-02T07:31:38.546Z,74.43
2018-10-02T07:34:08.386Z,74.07
2018-10-02T07:36:37.944Z,74.15
2018-10-02T07:39:09.092Z,73.74
2018-10-02T07:41:38.753Z,73.45
2018-10-02T07:44:08.483Z,73.69
2018-10-02T07:46:37.963Z,73.67
2018-10-02T07:49:07.835Z,74.46
2018-10-02T07:51:37.314Z,74.47
2018-10-02T07:54:07.222Z,74.48
2018-10-02T07:56:37.793Z,75.09
2018-10-02T07:59:08.126Z,75.73
2018-10-02T08:01:37.727Z,76.81
2018-10-02T08:04:08.859Z,77.25
2018-10-02T08:06:41.240Z,77.17
2018-10-02T08:09:13.593Z,77.73
2018-10-02T08:11:43.572Z,78.61
2018-10-02T08:14:21.376Z,79.59
2018-10-02T08:16:51.347Z,79.57
2018-10-02T08:19:20.997Z,80.13
2018-10-02T08:21:54.369Z,80.61
2018-10-02T08:24:27.633Z,80.17
2018-10-02T08:26:58.865Z,79.72
2018-10-02T08:29:30.188Z,79.70
2018-10-02T08:32:02.754Z,79.58
2018-10-02T08:34:35.782Z,80.24
2018-10-02T08:37:07.763Z,80.01
2018-10-02T08:39:40.510Z,79.23
2018-10-02T08:42:12.906Z,80.09
2018-10-02T08:44:45.652Z,80.08
2018-10-02T08:47:17.766Z,80.46
2018-10-02T08:49:50.036Z,80.20
2018-10-02T08:52:22.017Z,80.17
2018-10-02T08:54:54.946Z,79.88
2018-10-02T08:57:27.082Z,79.88
2018-10-02T09:00:00.480Z,79.84
2018-10-02T09:02:33.792Z,79.91
2018-10-02T09:05:06.726Z,79.91
2018-10-02T09:07:38.389Z,79.88
2018-10-02T09:10:09.901Z,79.28
2018-10-02T09:12:43.079Z,79.53
2018-10-02T09:15:17.421Z,79.61
2018-10-02T09:17:50.692Z,79.27
2018-10-02T09:20:24.386Z,79.47
2018-10-02T09:22:56.789Z,79.45
2018-10-02T09:25:30.180Z,79.46
2018-10-02T09:28:03.249Z,79.21
2018-10-02T09:30:41.317Z,78.76
2018-10-02T09:33:18.912Z,79.16
2018-10-02T09:35:57.550Z,77.31
2018-10-02T09:38:35.021Z,76.39
2018-10-02T09:41:13.008Z,76.57
2018-10-02T09:43:50.199Z,76.62
2018-10-02T09:46:23.977Z,76.44
2018-10-02T09:48:57.320Z,77.07
2018-10-02T09:51:30.841Z,77.21
2018-10-02T09:54:04.169Z,76.87
2018-10-02T09:56:40.170Z,77.69
2018-10-02T09:59:14.182Z,77.62
2018-10-02T10:01:51.652Z,78.27
2018-10-02T10:04:24.751Z,78.62
2018-10-02T10:06:56.705Z,78.73
2018-10-02T10:09:27.291Z,78.56
2018-10-02T10:11:59.921Z,78.44
2018-10-02T10:14:31.993Z,79.22
2018-10-02T10:17:02.781Z,79.12
2018-10-02T10:19:35.787Z,79.37
2018-10-02T10:22:06.620Z,79.50
2018-10-02T10:24:39.116Z,79.75
2018-10-02T10:27:11.931Z,79.82
2018-10-02T10:29:43.026Z,80.04
2018-10-02T10:32:13.898Z,80.05
2018-10-02T10:34:45.679Z,80.23
2018-10-02T10:37:15.298Z,80.50
2018-10-02T10:39:44.863Z,80.33
2018-10-02T10:42:15.868Z,79.56
2018-10-02T10:44:47.230Z,80.63
2018-10-02T10:47:16.867Z,79.83
2018-10-02T10:49:49.764Z,80.42
2018-10-02T10:52:21.847Z,79.91
2018-10-02T10:55:09.621Z,80.01
2018-10-02T10:57:41.815Z,79.58
2018-10-02T11:00:15.035Z,80.26
2018-10-02T11:02:47.635Z,80.11
2018-10-02T11:05:20.936Z,80.16
2018-10-02T11:07:51.588Z,80.19
2018-10-02T11:10:22.484Z,80.66
2018-10-02T11:12:54.150Z,80.68
2018-10-02T11:15:29.435Z,80.75
2018-10-02T11:18:03.268Z,80.18
2018-10-02T11:20:36.591Z,80.80
2018-10-02T11:23:11.419Z,81.22
2018-10-02T11:25:41.107Z,80.82
2018-10-02T11:28:11.342Z,81.33
2018-10-02T11:30:43.801Z,82.08
2018-10-02T11:33:16.750Z,82.26
2018-10-02T11:35:48.855Z,81.96
2018-10-02T11:38:21.011Z,82.32
2018-10-02T11:40:53.747Z,82.55
2018-10-02T11:43:25.294Z,82.19
2018-10-02T11:45:55.300Z,83.33
2018-10-02T11:48:28.465Z,82.53
2018-10-02T11:51:01.382Z,83.18
2018-10-02T11:53:34.636Z,83.45
2018-10-02T11:56:07.395Z,83.40
2018-10-02T11:58:39.562Z,83.34
2018-10-02T12:01:09.638Z,83.64
2018-10-02T12:03:43.046Z,83.34
2018-10-02T12:06:15.776Z,83.80
2018-10-02T12:08:48.230Z,83.59
2018-10-02T12:11:19.690Z,83.51
2018-10-02T12:13:51.623Z,83.36
2018-10-02T12:16:22.490Z,83.02
2018-10-02T12:18:53.579Z,83.21
2018-10-02T12:21:24.037Z,83.72
2018-10-02T12:23:54.937Z,83.47
2018-10-02T12:26:25.900Z,83.67
2018-10-02T12:28:56.616Z,83.38
2018-10-02T12:31:26.260Z,83.75
2018-10-02T12:33:59.261Z,83.36
2018-10-02T12:36:30.545Z,83.63
2018-10-02T12:39:03.419Z,83.44
2018-10-02T12:41:35.772Z,84.17
2018-10-02T12:44:08.868Z,83.14
2018-10-02T12:46:40.759Z,83.37
2018-10-02T12:49:13.746Z,82.93
2018-10-02T12:51:44.631Z,83.31
2018-10-02T12:54:15.869Z,82.84
2018-10-02T12:56:48.792Z,82.83
2018-10-02T12:59:21.638Z,82.79
2018-10-02T13:01:54.769Z,83.52
2018-10-02T13:04:27.513Z,83.50
2018-10-02T13:07:00.499Z,83.72
2018-10-02T13:09:33.427Z,83.56
2018-10-02T13:12:06.228Z,83.03
2018-10-02T13:14:37.827Z,82.98
2018-10-02T13:17:10.363Z,83.02
2018-10-02T13:19:42.119Z,83.11
2018-10-02T13:22:14.421Z,83.15
2018-10-02T13:24:45.493Z,82.89
2018-10-02T13:27:17.196Z,82.90
2018-10-02T13:29:46.827Z,83.33
2018-10-02T13:32:16.421Z,82.94
2018-10-02T13:34:46.186Z,83.11
2018-10-02T13:37:18.573Z,83.42
2018-10-02T13:39:51.484Z,82.11
2018-10-02T13:42:25.013Z,82.80
2018-10-02T13:44:57.314Z,82.89
2018-10-02T13:47:29.307Z,83.10
2018-10-02T13:49:58.961Z,83.34
2018-10-02T13:52:28.539Z,83.37
2018-10-02T13:54:58.085Z,83.03
2018-10-02T13:57:27.639Z,83.71
2018-10-02T13:59:57.191Z,83.76
2018-10-02T14:02:28.643Z,83.26
2018-10-02T14:04:58.217Z,82.98
2018-10-02T14:07:27.703Z,83.39
2018-10-02T14:09:57.202Z,82.95
2018-10-02T14:12:27.074Z,83.04
2018-10-02T14:14:56.664Z,83.02
2018-10-02T14:17:26.330Z,83.18
2018-10-02T14:19:55.854Z,83.12
2018-10-02T14:22:25.742Z,83.36
2018-10-02T14:24:55.295Z,83.38
2018-10-02T14:27:24.797Z,83.34
2018-10-02T14:29:54.301Z,83.22
2018-10-02T14:32:24.036Z,83.25
2018-10-02T14:34:53.566Z,82.93
2018-10-02T14:37:23.106Z,83.19
2018-10-02T14:39:53.019Z,83.40
2018-10-02T14:42:22.526Z,83.31
2018-10-02T14:44:52.057Z,82.99
2018-10-02T14:47:21.568Z,82.31
2018-10-02T14:49:51.100Z,82.91
2018-10-02T14:52:20.648Z,82.91
2018-10-02T14:54:50.282Z,83.49
2018-10-02T14:57:19.870Z,82.53
2018-10-02T14:59:49.486Z,82.23
2018-10-02T15:02:19.070Z,82.50
2018-10-02T15:04:48.842Z,82.59
2018-10-02T15:07:18.530Z,82.25
2018-10-02T15:09:48.029Z,82.83
2018-10-02T15:12:17.735Z,82.30
2018-10-02T15:14:47.425Z,82.05
2018-10-02T15:17:17.052Z,82.27
2018-10-02T15:19:46.673Z,81.41
2018-10-02T15:22:16.223Z,81.24
2018-10-02T15:24:45.809Z,81.79
2018-10-02T15:27:15.370Z,81.30
2018-10-02T15:29:44.957Z,81.31
2018-10-02T15:32:14.495Z,80.59
2018-10-02T15:34:44.059Z,81.25
2018-10-02T15:37:13.575Z,80.29
2018-10-02T15:39:43.065Z,80.83
2018-10-02T15:42:12.676Z,80.77
2018-10-02T15:44:42.515Z,80.52
2018-10-02T15:47:12.341Z,80.34
2018-10-02T15:49:41.855Z,80.44
2018-10-02T15:52:11.354Z,80.29
2018-10-02T15:54:40.916Z,80.03
2018-10-02T15:57:10.734Z,79.86
2018-10-02T15:59:40.297Z,79.39
2018-10-02T16:02:09.910Z,79.50
2018-10-02T16:04:39.438Z,79.48
2018-10-02T16:07:09.251Z,78.65
2018-10-02T16:09:38.821Z,78.72
2018-10-02T16:12:08.673Z,78.67
2018-10-02T16:14:38.196Z,79.11
2018-10-02T16:17:08.262Z,78.15
2018-10-02T16:19:37.986Z,78.05
2018-10-02T16:22:07.921Z,78.60
2018-10-02T16:24:38.002Z,78.48
2018-10-02T16:27:07.792Z,77.63
2018-10-02T16:29:37.387Z,77.93
2018-10-02T16:32:07.264Z,77.70
2018-10-02T16:34:48.979Z,77.69
2018-10-02T16:37:06.934Z,77.86
2018-10-02T16:39:36.498Z,78.94
2018-10-02T16:42:06.086Z,78.36
2018-10-02T16:44:35.729Z,78.59
2018-10-02T16:47:05.710Z,77.95
2018-10-02T16:49:35.722Z,78.33
2018-10-02T16:52:05.357Z,78.53
2018-10-02T16:54:34.979Z,78.89
2018-10-02T16:57:05.130Z,79.32
2018-10-02T16:59:35.104Z,78.50
2018-10-02T17:02:05.546Z,78.87
2018-10-02T17:04:36.294Z,78.65
2018-10-02T17:07:06.717Z,77.51
2018-10-02T17:09:36.305Z,77.67
2018-10-02T17:12:05.932Z,77.59
2018-10-02T17:14:35.501Z,77.26
2018-10-02T17:17:05.389Z,77.36
2018-10-02T17:19:35.277Z,76.91
2018-10-02T17:22:05.035Z,76.69
2018-10-02T17:24:34.591Z,76.98
2018-10-02T17:27:04.507Z,77.19
2018-10-02T17:29:34.107Z,78.11
2018-10-02T17:32:03.687Z,77.30
2018-10-02T17:34:33.260Z,77.42
2018-10-02T17:37:02.846Z,77.06
2018-10-02T17:39:32.346Z,77.82
2018-10-02T17:42:01.897Z,76.69
2018-10-02T17:44:31.431Z,77.44
2018-10-02T17:47:00.989Z,77.38
2018-10-02T17:49:30.512Z,77.18
2018-10-02T17:52:00.454Z,77.02
2018-10-02T17:54:30.135Z,77.14
2018-10-02T17:56:59.685Z,76.78
2018-10-02T17:59:29.247Z,76.99
2018-10-02T18:01:58.763Z,76.16
2018-10-02T18:04:28.318Z,75.78
2018-10-02T18:06:57.885Z,76.13
2018-10-02T18:09:27.401Z,76.53
2018-10-02T18:11:56.931Z,76.27
2018-10-02T18:14:26.453Z,75.87
2018-10-02T18:16:55.969Z,76.20
2018-10-02T18:19:25.458Z,75.68
2018-10-02T18:21:54.970Z,76.39
2018-10-02T18:24:24.543Z,75.97
2018-10-02T18:26:54.076Z,75.44
2018-10-02T18:29:23.609Z,75.15
2018-10-02T18:31:53.157Z,75.06
2018-10-02T18:34:22.765Z,74.62
2018-10-02T18:36:52.357Z,74.06
2018-10-02T18:39:21.877Z,74.43
2018-10-02T18:41:53.381Z,73.10
2018-10-02T18:44:22.869Z,73.25
2018-10-02T18:46:52.461Z,72.61
2018-10-02T18:49:21.954Z,72.45
2018-10-02T18:51:51.514Z,72.27
2018-10-02T18:54:21.438Z,72.70
2018-10-02T18:56:50.997Z,72.42
2018-10-02T18:59:21.555Z,72.55
2018-10-02T19:01:51.093Z,71.82
2018-10-02T19:04:20.671Z,72.60
2018-10-02T19:06:50.598Z,72.70
2018-10-02T19:09:20.720Z,72.71
2018-10-02T19:11:55.370Z,72.65
2018-10-02T19:14:25.018Z,72.15
2018-10-02T19:16:54.522Z,72.20
2018-10-02T19:19:29.245Z,71.94
2018-10-02T19:21:58.792Z,72.08
2018-10-02T19:24:28.372Z,72.09
2018-10-02T19:26:57.902Z,71.71
2018-10-02T19:29:29.489Z,71.82
2018-10-02T19:32:04.407Z,71.12
2018-10-02T19:34:33.945Z,70.82
2018-10-02T19:37:03.495Z,71.35
2018-10-02T19:39:33.694Z,71.32
2018-10-02T19:42:03.285Z,71.66
2018-10-02T19:44:32.802Z,71.35
2018-10-02T19:47:05.916Z,71.01
2018-10-02T19:49:38.489Z,71.14
2018-10-02T19:52:14.037Z,71.08
2018-10-02T19:54:47.425Z,71.32
2018-10-02T19:57:24.386Z,71.43
2018-10-02T19:59:53.935Z,71.69
2018-10-02T20:02:26.245Z,71.05
2018-10-02T20:04:56.852Z,71.53
2018-10-02T20:07:27.462Z,71.77
2018-10-02T20:09:57.383Z,71.83
2018-10-02T20:12:29.729Z,71.97
2018-10-02T20:15:00.055Z,72.41
2018-10-02T20:17:29.705Z,72.03
2018-10-02T20:20:00.074Z,72.35
2018-10-02T20:22:32.002Z,72.49
2018-10-02T20:25:04.496Z,72.38
2018-10-02T20:27:36.302Z,72.32
2018-10-02T20:30:07.328Z,72.32
2018-10-02T20:32:39.777Z,72.23
2018-10-02T20:35:12.043Z,72.45
2018-10-02T20:37:44.519Z,72.13
2018-10-02T20:40:15.087Z,72.34
2018-10-02T20:42:47.610Z,71.72
2018-10-02T20:45:20.340Z,71.56
2018-10-02T20:47:51.917Z,71.36
2018-10-02T20:50:22.158Z,71.01
2018-10-02T20:52:55.110Z,70.61
2018-10-02T20:55:27.741Z,70.68
2018-10-02T20:57:59.390Z,70.77
2018-10-02T21:00:30.495Z,70.77
2018-10-02T21:03:01.781Z,70.61
2018-10-02T21:05:33.446Z,70.35
2018-10-02T21:08:03.707Z,70.47
2018-10-02T21:10:33.306Z,70.01
2018-10-02T21:13:05.249Z,70.69
2018-10-02T21:15:37.429Z,70.53
2018-10-02T21:18:10.349Z,70.51
2018-10-02T21:20:43.169Z,69.98
2018-10-02T21:23:14.458Z,69.67
2018-10-02T21:25:47.356Z,69.65
2018-10-02T21:28:19.838Z,69.48
2018-10-02T21:30:52.638Z,70.01
2018-10-02T21:33:25.572Z,70.22
2018-10-02T21:35:56.970Z,70.01
2018-10-02T21:38:26.863Z,69.85
2018-10-02T21:40:59.959Z,70.11
2018-10-02T21:43:33.407Z,69.67
2018-10-02T21:46:06.353Z,69.77
2018-10-02T21:48:38.954Z,69.69
2018-10-02T21:51:09.552Z,69.84
2018-10-02T21:53:41.530Z,69.55
2018-10-02T21:56:12.898Z,69.64
2018-10-02T21:58:43.216Z,70.31
2018-10-02T22:01:12.845Z,70.35
2018-10-02T22:03:45.414Z,70.38
2018-10-02T22:06:19.380Z,69.84
2018-10-02T22:08:52.741Z,70.32
2018-10-02T22:11:26.034Z,69.90
2018-10-02T22:13:59.519Z,69.82
2018-10-02T22:16:32.424Z,70.00
2018-10-02T22:19:03.504Z,70.07
2018-10-02T22:21:34.870Z,69.59
2018-10-02T22:24:07.976Z,69.60
2018-10-02T22:26:37.758Z,69.61
2018-10-02T22:29:07.997Z,70.03
2018-10-02T22:31:40.590Z,70.11
2018-10-02T22:34:13.618Z,70.51
2018-10-02T22:36:46.078Z,70.35
2018-10-02T22:39:15.673Z,70.68
2018-10-02T22:41:45.166Z,70.92
2018-10-02T22:44:14.710Z,70.46
2018-10-02T22:46:44.232Z,71.10
2018-10-02T22:49:13.692Z,71.45
2018-10-02T22:51:43.462Z,71.32
2018-10-02T22:54:13.058Z,71.13
2018-10-02T22:56:42.586Z,71.28
2018-10-02T22:59:12.092Z,71.36
2018-10-02T23:01:41.856Z,71.30
2018-10-02T23:04:11.366Z,71.42
2018-10-02T23:06:40.930Z,71.24
2018-10-02T23:09:12.632Z,71.81
2018-10-02T23:11:42.656Z,71.94
2018-10-02T23:14:12.155Z,71.72
2018-10-02T23:16:41.645Z,72.11
2018-10-02T23:19:11.167Z,71.79
2018-10-02T23:21:40.778Z,71.69
2018-10-02T23:24:10.526Z,72.31
2018-10-02T23:26:40.012Z,71.75
2018-10-02T23:29:10.197Z,71.79
2018-10-02T23:31:39.889Z,72.09
2018-10-02T23:34:09.453Z,72.40
2018-10-02T23:36:38.957Z,72.19
2018-10-02T23:39:09.633Z,73.07
2018-10-02T23:41:39.129Z,72.20
2018-10-02T23:44:11.385Z,72.31
2018-10-02T23:46:40.916Z,72.44
2018-10-02T23:49:11.274Z,72.71
2018-10-02T23:51:40.788Z,72.61
2018-10-02T23:54:10.289Z,72.56
2018-10-02T23:56:40.130Z,72.50
2018-10-02T23:59:09.646Z,72.66
